createdAt,value
2023-03-10T00:02:03.678Z,4.23
2023-03-10T00:05:06.785Z,4.20
2023-03-10T00:08:10.040Z,4.13
2023-03-10T00:11:12.657Z,3.90
2023-03-10T00:14:15.340Z,3.30
2023-03-10T00:17:18.950Z,3.80
2023-03-10T00:20:23.013Z,3.40
2023-03-10T00:23:25.270Z,2.75
2023-03-10T00:26:29.219Z,2.97
2023-03-10T00:29:30.956Z,2.53
2023-03-10T00:32:34.525Z,2.57
2023-03-10T00:35:36.250Z,2.55
2023-03-10T00:38:38.999Z,2.60
2023-03-10T00:41:40.665Z,2.40
2023-03-10T00:44:42.250Z,2.35
2023-03-10T00:47:44.188Z,2.20
2023-03-10T00:50:47.006Z,2.38
2023-03-10T00:53:50.771Z,2.03
2023-03-10T00:56:52.658Z,2.22
2023-03-10T00:59:54.812Z,2.58
2023-03-10T01:02:56.904Z,2.80
2023-03-10T01:06:02.776Z,2.20
2023-03-10T01:09:10.661Z,1.75
2023-03-10T01:12:13.097Z,1.63
2023-03-10T01:15:15.197Z,1.50
2023-03-10T01:18:20.282Z,1.58
2023-03-10T01:21:24.770Z,1.40
2023-03-10T01:24:27.091Z,1.33
2023-03-10T01:27:28.641Z,1.30
2023-03-10T01:30:30.727Z,1.40
2023-03-10T01:33:41.130Z,1.37
2023-03-10T01:36:42.800Z,1.42
2023-03-10T01:39:44.949Z,1.40
2023-03-10T01:42:47.128Z,1.33
2023-03-10T01:45:48.681Z,1.35
2023-03-10T01:48:54.787Z,1.20
2023-03-10T01:52:19.742Z,1.30
2023-03-10T01:55:27.405Z,1.58
2023-03-10T01:58:37.908Z,1.40
2023-03-10T02:01:39.685Z,1.30
2023-03-10T02:04:49.629Z,1.60
2023-03-10T02:07:56.457Z,1.52
2023-03-10T02:11:01.746Z,1.30
2023-03-10T02:14:06.380Z,1.57
2023-03-10T02:17:13.882Z,1.50
2023-03-10T02:20:39.844Z,1.70
2023-03-10T02:24:00.914Z,1.40
2023-03-10T02:27:18.651Z,1.67
2023-03-10T02:30:34.290Z,1.50
2023-03-10T02:33:37.544Z,1.23
2023-03-10T02:36:39.243Z,1.40
2023-03-10T02:39:41.656Z,1.40
2023-03-10T02:42:43.340Z,1.58
2023-03-10T02:45:47.788Z,1.57
2023-03-10T02:48:50.340Z,1.58
2023-03-10T02:52:02.692Z,1.50
2023-03-10T02:55:06.309Z,1.50
2023-03-10T02:58:08.854Z,1.30
2023-03-10T03:01:12.098Z,1.63
2023-03-10T03:04:16.776Z,1.60
2023-03-10T03:07:20.814Z,1.30
2023-03-10T03:10:22.499Z,1.27
2023-03-10T03:13:26.289Z,1.40
2023-03-10T03:16:28.871Z,1.27
2023-03-10T03:19:35.151Z,1.20
2023-03-10T03:22:37.782Z,1.40
2023-03-10T03:25:41.320Z,1.50
2023-03-10T03:28:45.563Z,1.70
2023-03-10T03:31:49.402Z,1.70
2023-03-10T03:34:55.632Z,1.40
2023-03-10T03:37:58.255Z,1.67
2023-03-10T03:41:01.164Z,1.30
2023-03-10T03:44:06.636Z,1.30
2023-03-10T03:47:10.615Z,1.50
2023-03-10T03:50:16.508Z,1.17
2023-03-10T03:53:19.402Z,1.27
2023-03-10T03:56:22.612Z,1.13
2023-03-10T03:59:25.437Z,1.30
2023-03-10T04:02:27.886Z,1.20
2023-03-10T04:05:30.400Z,1.23
2023-03-10T04:08:32.776Z,1.27
2023-03-10T04:11:36.489Z,1.20
2023-03-10T04:14:38.990Z,1.20
2023-03-10T04:17:42.555Z,1.40
2023-03-10T04:20:45.093Z,1.15
2023-03-10T04:23:47.249Z,1.50
2023-03-10T04:26:55.291Z,1.30
2023-03-10T04:29:58.013Z,1.00
2023-03-10T04:33:01.427Z,1.10
2023-03-10T04:36:08.363Z,1.00
2023-03-10T04:39:11.398Z,1.00
2023-03-10T04:42:16.124Z,1.10
2023-03-10T04:45:20.797Z,0.90
2023-03-10T04:48:24.549Z,1.10
2023-03-10T04:51:26.842Z,0.98
2023-03-10T04:54:31.146Z,0.80
2023-03-10T04:57:34.277Z,0.90
2023-03-10T05:00:40.194Z,0.98
2023-03-10T05:03:45.456Z,1.00
2023-03-10T05:06:53.410Z,0.80
2023-03-10T05:10:04.739Z,0.70
2023-03-10T05:13:12.336Z,0.50
2023-03-10T05:16:20.596Z,0.52
2023-03-10T05:19:24.762Z,0.50
2023-03-10T05:22:27.975Z,0.40
2023-03-10T05:25:30.168Z,0.35
2023-03-10T05:28:32.235Z,0.52
2023-03-10T05:31:34.531Z,0.40
2023-03-10T05:34:42.946Z,0.50
2023-03-10T05:37:46.097Z,0.50
2023-03-10T05:40:48.271Z,0.60
2023-03-10T05:43:51.189Z,0.50
2023-03-10T05:46:56.216Z,0.60
2023-03-10T05:49:59.073Z,0.70
2023-03-10T05:53:02.267Z,0.68
2023-03-10T05:56:13.007Z,0.65
2023-03-10T05:59:16.568Z,0.60
2023-03-10T06:02:19.325Z,0.80
2023-03-10T06:05:21.295Z,0.70
2023-03-10T06:08:24.796Z,0.60
2023-03-10T06:11:27.748Z,1.00
2023-03-10T06:14:29.396Z,1.00
2023-03-10T06:17:31.923Z,0.80
2023-03-10T06:20:34.397Z,0.70
2023-03-10T06:23:37.516Z,0.80
2023-03-10T06:26:39.840Z,0.70
2023-03-10T06:29:41.645Z,0.73
2023-03-10T06:32:46.176Z,0.80
2023-03-10T06:35:50.263Z,1.00
2023-03-10T06:38:54.312Z,0.80
2023-03-10T06:41:59.842Z,0.70
2023-03-10T06:45:05.195Z,0.80
2023-03-10T06:48:11.458Z,0.70
2023-03-10T06:51:21.827Z,0.87
2023-03-10T06:54:26.517Z,0.90
2023-03-10T06:57:30.279Z,0.80
2023-03-10T07:00:32.642Z,1.27
2023-03-10T07:03:36.555Z,1.00
2023-03-10T07:06:39.026Z,0.80
2023-03-10T07:09:42.292Z,0.90
2023-03-10T07:12:46.094Z,0.70
2023-03-10T07:15:48.735Z,0.90
2023-03-10T07:18:50.673Z,0.82
2023-03-10T07:21:55.621Z,0.90
2023-03-10T07:24:57.376Z,0.90
2023-03-10T07:27:59.093Z,0.88
2023-03-10T07:31:06.965Z,1.00
2023-03-10T07:34:10.866Z,1.20
2023-03-10T07:37:13.074Z,1.20
2023-03-10T07:40:16.211Z,0.82
2023-03-10T07:43:18.036Z,1.03
2023-03-10T07:46:22.500Z,1.08
2023-03-10T07:49:24.316Z,1.80
2023-03-10T07:52:29.924Z,2.90
2023-03-10T07:55:32.248Z,2.20
2023-03-10T07:58:37.129Z,1.58
2023-03-10T08:01:39.814Z,1.05
2023-03-10T08:04:42.795Z,1.20
2023-03-10T08:07:45.792Z,1.50
2023-03-10T08:10:47.896Z,1.00
2023-03-10T08:13:50.198Z,1.13
2023-03-10T08:16:52.410Z,1.40
2023-03-10T08:19:55.239Z,1.15
2023-03-10T08:22:57.723Z,1.20
2023-03-10T08:26:13.592Z,1.00
2023-03-10T08:29:15.887Z,0.90
2023-03-10T08:32:19.970Z,1.50
2023-03-10T08:35:21.820Z,1.20
2023-03-10T08:38:23.936Z,1.20
2023-03-10T08:41:33.555Z,1.20
2023-03-10T08:44:37.297Z,1.10
2023-03-10T08:47:39.530Z,1.20
2023-03-10T08:50:41.230Z,1.00
2023-03-10T08:53:46.724Z,1.00
2023-03-10T08:56:49.922Z,1.23
2023-03-10T08:59:52.011Z,1.00
2023-03-10T09:02:54.188Z,1.00
2023-03-10T09:05:56.955Z,0.75
2023-03-10T09:08:58.714Z,0.80
2023-03-10T09:12:01.497Z,0.80
2023-03-10T09:15:04.171Z,0.80
2023-03-10T09:18:11.619Z,0.80
2023-03-10T09:21:15.892Z,0.80
2023-03-10T09:24:20.148Z,0.63
2023-03-10T09:27:22.508Z,0.75
2023-03-10T09:30:25.127Z,0.50
2023-03-10T09:33:27.489Z,0.40
2023-03-10T09:36:30.254Z,0.50
2023-03-10T09:39:34.803Z,0.50
2023-03-10T09:42:49.241Z,0.40
2023-03-10T09:46:05.550Z,0.20
2023-03-10T09:49:28.484Z,0.40
2023-03-10T09:52:44.996Z,0.30
2023-03-10T09:55:49.736Z,0.30
2023-03-10T09:58:58.773Z,0.30
2023-03-10T10:02:16.522Z,0.30
2023-03-10T10:05:27.872Z,0.40
2023-03-10T10:08:43.462Z,0.40
2023-03-10T10:11:47.076Z,0.38
2023-03-10T10:14:57.183Z,0.38
2023-03-10T10:18:27.809Z,0.40
2023-03-10T10:21:42.686Z,0.40
2023-03-10T10:25:09.796Z,0.40
2023-03-10T10:28:22.639Z,0.40
2023-03-10T10:31:28.434Z,1.08
2023-03-10T10:34:32.175Z,0.60
2023-03-10T10:37:44.485Z,2.38
2023-03-10T10:40:57.397Z,0.43
2023-03-10T10:44:09.480Z,0.60
2023-03-10T10:47:39.633Z,0.47
2023-03-10T10:50:53.748Z,0.80
2023-03-10T10:53:57.797Z,0.43
2023-03-10T10:57:02.934Z,0.50
2023-03-10T11:00:27.641Z,0.63
2023-03-10T11:03:39.880Z,0.60
2023-03-10T11:06:42.637Z,0.40
2023-03-10T11:09:45.115Z,0.40
2023-03-10T11:12:54.776Z,0.50
2023-03-10T11:16:22.160Z,0.60
2023-03-10T11:19:41.957Z,0.70
2023-03-10T11:22:52.843Z,0.70
2023-03-10T11:25:56.197Z,0.52
2023-03-10T11:29:09.785Z,0.50
2023-03-10T11:32:57.401Z,0.50
2023-03-10T11:36:28.098Z,0.50
2023-03-10T11:39:44.320Z,0.60
2023-03-10T11:43:11.350Z,0.40
2023-03-10T11:46:25.214Z,0.60
2023-03-10T11:49:36.130Z,0.40
2023-03-10T11:52:38.611Z,0.43
2023-03-10T11:55:41.793Z,0.50
2023-03-10T11:59:09.827Z,0.30
2023-03-10T12:02:25.808Z,0.50
2023-03-10T12:05:36.743Z,0.40
2023-03-10T12:08:40.505Z,0.55
2023-03-10T12:11:43.248Z,0.50
2023-03-10T12:14:46.382Z,0.40
2023-03-10T12:17:49.695Z,0.60
2023-03-10T12:21:22.006Z,0.40
2023-03-10T12:24:46.396Z,0.50
2023-03-10T12:28:15.966Z,0.50
2023-03-10T12:31:39.635Z,0.40
2023-03-10T12:34:41.960Z,0.50
2023-03-10T12:37:43.590Z,0.60
2023-03-10T12:40:53.121Z,0.50
2023-03-10T12:44:18.764Z,0.60
2023-03-10T12:47:35.858Z,0.60
2023-03-10T12:50:56.879Z,0.50
2023-03-10T12:54:13.651Z,0.50
2023-03-10T12:57:26.816Z,0.50
2023-03-10T13:00:53.901Z,0.60
2023-03-10T13:03:56.440Z,0.60
2023-03-10T13:07:04.160Z,0.40
2023-03-10T13:10:20.162Z,0.68
2023-03-10T13:13:29.289Z,0.50
2023-03-10T13:16:33.097Z,0.40
2023-03-10T13:19:37.536Z,0.50
2023-03-10T13:22:39.274Z,0.50
2023-03-10T13:25:51.896Z,0.52
2023-03-10T13:29:02.210Z,0.40
2023-03-10T13:32:04.241Z,0.50
2023-03-10T13:35:21.139Z,0.40
2023-03-10T13:38:26.792Z,0.50
2023-03-10T13:41:30.710Z,0.75
2023-03-10T13:44:42.950Z,0.50
2023-03-10T13:47:44.710Z,0.45
2023-03-10T13:50:46.403Z,0.52
2023-03-10T13:53:52.715Z,0.50
2023-03-10T13:57:19.186Z,0.50
2023-03-10T14:00:24.180Z,0.82
2023-03-10T14:03:25.860Z,2.17
2023-03-10T14:06:28.974Z,0.90
2023-03-10T14:09:30.624Z,1.10
2023-03-10T14:12:41.884Z,0.70
2023-03-10T14:26:19.291Z,0.60
2023-03-10T14:29:27.982Z,0.55
2023-03-10T14:32:29.919Z,0.70
2023-03-10T14:42:04.542Z,0.50
2023-03-10T14:59:58.848Z,0.38
2023-03-10T15:03:00.854Z,0.50
2023-03-10T15:06:02.571Z,0.67
2023-03-10T15:09:12.289Z,0.50
2023-03-10T15:12:18.059Z,0.55
2023-03-10T15:15:30.942Z,0.80
2023-03-10T15:18:33.249Z,1.08
2023-03-10T15:21:37.248Z,1.10
2023-03-10T15:24:39.462Z,0.68
2023-03-10T15:27:41.329Z,0.52
2023-03-10T15:30:44.515Z,0.40
2023-03-10T15:33:53.800Z,0.30
2023-03-10T15:36:57.931Z,0.30
2023-03-10T15:40:00.726Z,0.40
2023-03-10T15:43:09.363Z,0.52
2023-03-10T15:46:16.089Z,0.50
2023-03-10T15:49:24.330Z,0.60
2023-03-10T15:52:35.622Z,0.43
2023-03-10T15:55:43.990Z,0.65
2023-03-10T15:58:50.970Z,1.02
2023-03-10T16:01:53.029Z,1.00
2023-03-10T16:04:57.073Z,0.80
2023-03-10T16:08:00.126Z,0.70
2023-03-10T16:11:01.739Z,0.70
2023-03-10T16:14:04.269Z,0.50
2023-03-10T16:17:05.821Z,0.60
2023-03-10T16:20:14.702Z,0.40
2023-03-10T16:23:16.366Z,0.50
2023-03-10T16:26:25.806Z,0.40
2023-03-10T16:29:30.161Z,0.50
2023-03-10T16:32:32.109Z,0.50
2023-03-10T16:35:33.815Z,0.50
2023-03-10T16:38:36.962Z,0.50
2023-03-10T16:41:39.145Z,0.50
2023-03-10T16:44:40.741Z,0.80
2023-03-10T16:47:43.961Z,0.50
2023-03-10T16:50:47.270Z,0.90
2023-03-10T16:53:51.311Z,0.80
2023-03-10T16:56:54.412Z,0.80
2023-03-10T16:59:56.135Z,0.90
2023-03-10T17:02:58.001Z,0.80
2023-03-10T17:05:59.736Z,0.80
2023-03-10T17:09:03.698Z,0.60
2023-03-10T17:12:05.859Z,0.80
2023-03-10T17:15:10.216Z,0.70
2023-03-10T17:18:14.076Z,0.90
2023-03-10T17:21:22.721Z,1.20
2023-03-10T17:24:28.105Z,0.90
2023-03-10T17:27:31.142Z,1.00
2023-03-10T17:30:33.216Z,0.50
2023-03-10T17:33:36.338Z,0.90
2023-03-10T17:36:39.738Z,1.40
2023-03-10T17:39:45.767Z,1.00
2023-03-10T17:42:49.333Z,1.00
2023-03-10T17:46:10.058Z,1.25
2023-03-10T17:49:27.133Z,0.90
2023-03-10T17:52:31.842Z,0.88
2023-03-10T17:55:35.839Z,1.30
2023-03-10T17:58:42.318Z,1.30
2023-03-10T18:01:47.499Z,1.00
2023-03-10T18:04:50.446Z,0.90
2023-03-10T18:07:56.682Z,1.38
2023-03-10T18:11:13.590Z,1.60
2023-03-10T18:14:25.231Z,1.27
2023-03-10T18:17:28.052Z,1.20
2023-03-10T18:20:32.691Z,1.40
2023-03-10T18:23:37.105Z,1.20
2023-03-10T18:26:47.945Z,1.30
2023-03-10T18:29:49.598Z,1.00
2023-03-10T18:32:54.251Z,1.55
2023-03-10T18:36:00.143Z,1.30
2023-03-10T18:39:07.553Z,1.15
2023-03-10T18:42:16.629Z,1.30
2023-03-10T18:45:20.170Z,1.00
2023-03-10T18:48:29.705Z,1.10
2023-03-10T18:51:34.595Z,1.03
2023-03-10T18:54:38.995Z,1.20
2023-03-10T18:57:45.399Z,1.13
2023-03-10T19:00:48.146Z,1.10
2023-03-10T19:03:53.308Z,0.90
2023-03-10T19:06:55.142Z,1.08
2023-03-10T19:09:56.778Z,1.20
2023-03-10T19:12:58.864Z,1.47
2023-03-10T19:16:06.812Z,1.83
2023-03-10T19:19:10.716Z,2.50
2023-03-10T19:22:13.352Z,2.00
2023-03-10T19:25:17.593Z,1.60
2023-03-10T19:28:21.335Z,1.20
2023-03-10T19:31:26.400Z,0.90
2023-03-10T19:34:30.803Z,2.30
2023-03-10T19:37:33.022Z,1.98
2023-03-10T19:40:49.207Z,2.35
2023-03-10T19:43:51.571Z,1.20
2023-03-10T19:46:55.831Z,1.00
2023-03-10T19:53:20.828Z,1.10
2023-03-10T19:56:28.743Z,1.10
2023-03-10T19:59:32.713Z,1.40
2023-03-10T20:02:37.256Z,1.35
2023-03-10T20:05:44.550Z,1.70
2023-03-10T20:08:48.561Z,1.38
2023-03-10T20:11:56.994Z,1.90
2023-03-10T20:15:05.899Z,1.50
2023-03-10T20:18:12.759Z,2.20
2023-03-10T20:21:16.123Z,2.40
2023-03-10T20:24:23.003Z,2.00
2023-03-10T20:27:27.310Z,1.90
2023-03-10T20:30:35.773Z,2.28
2023-03-10T20:33:40.953Z,1.98
2023-03-10T20:36:44.762Z,1.73
2023-03-10T20:39:49.940Z,1.75
2023-03-10T20:43:04.809Z,1.73
2023-03-10T20:46:12.318Z,1.57
2023-03-10T20:49:15.968Z,1.40
2023-03-10T20:52:58.107Z,1.90
2023-03-10T20:56:07.708Z,1.80
2023-03-10T20:59:12.912Z,1.85
2023-03-10T21:02:25.364Z,1.80
2023-03-10T21:05:35.800Z,2.05
2023-03-10T21:08:43.574Z,1.70
2023-03-10T21:12:29.085Z,2.20
2023-03-10T21:19:24.557Z,1.73
2023-03-10T21:22:44.270Z,1.83
2023-03-10T21:26:17.750Z,2.00
2023-03-10T21:29:26.099Z,1.70
2023-03-10T21:32:28.202Z,1.58
2023-03-10T21:35:33.688Z,1.60
2023-03-10T21:39:09.778Z,1.80
2023-03-10T21:42:15.438Z,1.42
2023-03-10T21:45:21.368Z,1.67
2023-03-10T21:48:36.050Z,1.60
2023-03-10T21:51:38.646Z,1.60
2023-03-10T21:54:40.850Z,1.50
2023-03-10T21:57:43.928Z,1.30
2023-03-10T22:00:47.004Z,1.30
2023-03-10T22:03:49.703Z,1.20
2023-03-10T22:06:55.196Z,1.30
2023-03-10T22:09:57.512Z,1.20
2023-03-10T22:12:59.670Z,1.20
2023-03-10T22:16:03.447Z,1.40
2023-03-10T22:19:05.529Z,1.75
2023-03-10T22:22:07.138Z,1.50
2023-03-10T22:25:12.983Z,1.35
2023-03-10T22:28:19.337Z,1.30
2023-03-10T22:31:22.297Z,1.20
2023-03-10T22:34:28.644Z,1.00
2023-03-10T22:37:31.769Z,1.00
2023-03-10T22:40:35.380Z,1.00
2023-03-10T22:43:37.433Z,1.00
2023-03-10T22:46:42.884Z,0.88
2023-03-10T22:49:46.588Z,0.80
2023-03-10T22:52:48.656Z,1.03
2023-03-10T22:55:51.415Z,1.00
2023-03-10T22:58:55.450Z,1.10
2023-03-10T23:01:57.473Z,1.10
2023-03-10T23:05:03.080Z,0.88
2023-03-10T23:08:08.123Z,1.00
2023-03-10T23:11:17.720Z,1.00
2023-03-10T23:14:22.903Z,1.10
2023-03-10T23:17:24.870Z,0.80
2023-03-10T23:20:34.329Z,0.90
2023-03-10T23:23:37.855Z,0.80
2023-03-10T23:26:43.686Z,0.80
2023-03-10T23:29:48.652Z,0.88
2023-03-10T23:32:55.050Z,0.80
2023-03-10T23:35:59.274Z,0.80
2023-03-10T23:39:01.323Z,0.80
2023-03-10T23:42:07.789Z,1.02
2023-03-10T23:45:18.429Z,0.90
2023-03-10T23:48:21.032Z,1.00
2023-03-10T23:51:25.749Z,0.90
2023-03-10T23:54:32.293Z,0.90
2023-03-10T23:57:35.702Z,1.00
